Route Details

Aircraft Information
Group: European Fleet
Types: A30F, A31F, B738
Route Data
Distance: 791nm
Duration: 1h 50m
Origin METAR: EETN 010520Z 14003KT 9999 FEW008 OVC031 M00/M01 Q0992 NOSIG
Dest. METAR: EDDK 010520Z AUTO 26012KT 9999 FEW023 05/02 Q1020 NOSIG
Freight Data
(for Feb 1, 2023)
Load Factor:
102%
Manifested Cargo: 80,776lbs
Financial History
Total Freight: 482,162lbs
Average Load: 0lbs/flt
Fuel Used: 207,282lbs
Avg. Fuel Used: 0lbs/flt
Fuel Expense: $76,319
Avg. Fuel Expense: $0
Avg. Fuel Cost: $0/lbs
Total Gross Income: $1,916,360
Pilot Pay: $2,199
Total Expenses: $296,968
Total Revenue: $1,536,516
Average Revenue: $0

Capitol Logistics 509




EETN
Tallinn Airport
Tallinn, EE
EDDK
Cologne Bonn Airport
Cologne, DE